ADDS METAR Data INFO
IDs: Format: Raw Decoded Include TAF

Data at: 1339 UTC 25 Feb 2018

KM91 251315Z AUTO 29007KT 10SM CLR 09/06 A3006 RMK A01
KM91 251255Z AUTO 29006KT 10SM CLR 09/06 A3005 RMK A01
KM91 251235Z AUTO 28007KT 10SM CLR 10/06 A3004 RMK A01
KM91 251215Z AUTO 29007G13KT 10SM CLR 10/06 A3002 RMK A01
KM91 251155Z AUTO 29009G14KT 10SM SCT025 BKN030 BKN040 11/07 A3001 RMK A01
KM91 251135Z AUTO 28010KT 10SM SCT025 SCT032 SCT038 11/08 A2999 RMK A01
KM91 251115Z AUTO 29009G15KT 10SM FEW039 12/09 A2998 RMK A01
KM91 251055Z AUTO 30011G20KT 10SM SCT022 SCT028 SCT040 12/09 A2996 RMK A01
KM91 251035Z AUTO 27010G17KT 10SM BKN021 BKN027 OVC120 13/11 A2994 RMK A01
KM91 251015Z AUTO 25011KT 10SM BKN016 BKN022 BKN031 13/12 A2992 RMK A01
KM91 250955Z AUTO 24009KT 10SM BKN015 BKN019 OVC024 13/12 A2991 RMK A01
KM91 250935Z AUTO 23010KT 10SM BKN015 OVC020 13/13 A2991 RMK A01
KM91 250915Z AUTO 23010KT 10SM BKN012 OVC018 13/13 A2990 RMK A01
KM91 250855Z AUTO 24009G14KT 10SM BKN012 OVC017 13/13 A2988 RMK A01 P0001
KM91 250835Z AUTO 22010KT 10SM OVC014 13/12 A2987 RMK A01
KM91 250815Z AUTO 23013KT 9SM OVC014 13/12 A2988 RMK A01
KM91 250755Z AUTO 23011G16KT 10SM OVC015 13/12 A2987 RMK A01 P0001
KM91 250735Z AUTO 21011G18KT 10SM OVC018 13/12 A2987 RMK A01
KM91 250715Z AUTO 22014KT 9SM BKN020 BKN037 OVC070 13/12 A2987 RMK A01
KM91 250655Z AUTO 20011KT 9SM FEW037 FEW055 OVC070 13/12 A2985 RMK A01 P0001
KM91 250635Z AUTO 21011KT 9SM FEW055 BKN065 OVC075 13/12 A2983 RMK A01
KM91 250615Z AUTO 20008KT 9SM FEW040 SCT055 OVC070 13/12 A2981 RMK A01
KM91 250555Z AUTO 22012KT 5SM BR SCT035 BKN055 OVC065 13/12 A2983 RMK A01 P0007
KM91 250535Z AUTO 23016G22KT 5SM BR SCT035 BKN050 OVC070 13/13 A2984 RMK A01
KM91 250515Z AUTO 21011G16KT 7SM SCT040 OVC050 14/13 A2984 RMK A01
KM91 250455Z AUTO 21012KT 6SM BR SCT040 BKN055 OVC070 15/14 A2984 RMK A01 P0011
KM91 250435Z AUTO 21012KT 7SM FEW005 SCT037 BKN048 15/14 A2983 RMK A01
KM91 250415Z AUTO 21014G20KT 2 1/2SM BR FEW005 BKN036 OVC055 15/14 A2985 RMK A01
KM91 250355Z AUTO 24020G28KT 2 1/2SM BR SCT005 BKN031 OVC038 16/15 A2984 RMK A01 P0042
KM91 250335Z AUTO 24023G41KT 1SM BR BKN004 BKN034 OVC060 17/16 A2982 RMK A01
KM91 250315Z AUTO 17016G26KT 10SM BKN075 BKN090 OVC110 20/17 A2975 RMK A01
KM91 250255Z AUTO 17015G21KT 9SM SCT033 BKN075 OVC095 20/17 A2976 RMK A01
KM91 250235Z AUTO 17014G19KT 8SM SCT034 BKN041 OVC075 20/17 A2977 RMK A01
KM91 250215Z AUTO 17011G21KT 10SM FEW031 SCT040 BKN060 20/17 A2978 RMK A01
KM91 250155Z AUTO 18013G21KT 7SM FEW028 SCT041 BKN060 21/17 A2979 RMK A01
KM91 250135Z AUTO 18011G18KT 10SM FEW029 SCT055 BKN075 21/17 A2980 RMK A01
KM91 250115Z AUTO 18011G22KT 10SM SCT033 BKN045 OVC080 22/17 A2980 RMK A01
KM91 250055Z AUTO 18012G25KT 10SM SCT035 SCT075 BKN090 22/17 A2979 RMK A01
KM91 250035Z AUTO 17014G20KT 10SM SCT039 BKN110 22/17 A2979 RMK A01
KM91 250015Z AUTO 17013G22KT 140V200 10SM FEW041 FEW046 BKN110 22/17 A2978 RMK A01
KM91 242355Z AUTO 16009G16KT 10SM FEW042 SCT048 SCT065 22/17 A2980 RMK A01
KM91 242335Z AUTO 17009KT 10SM FEW040 SCT050 BKN070 22/17 A2981 RMK A01
KM91 242315Z AUTO 18009KT 9SM BKN044 BKN070 OVC110 22/17 A2982 RMK A01
KM91 242255Z AUTO 18007KT 10SM FEW041 SCT047 BKN065 22/17 A2982 RMK A01
KM91 242235Z AUTO 20006KT 10SM SCT041 BKN050 OVC065 22/17 A2983 RMK A01
KM91 242215Z AUTO 20009G14KT 10SM FEW041 SCT055 OVC065 23/17 A2983 RMK A01
KM91 242155Z AUTO 17009KT 10SM FEW060 BKN070 BKN085 22/17 A2981 RMK A01
KM91 242135Z AUTO 16007KT 10SM FEW060 22/18 A2982 RMK A01
KM91 242115Z AUTO 17007KT 10SM CLR 21/18 A2984 RMK A01
KM91 242055Z AUTO 17005KT 10SM CLR 21/18 A2985 RMK A01
KM91 242035Z AUTO 19005G11KT 10SM SCT065 BKN080 21/17 A2986 RMK A01
KM91 242015Z AUTO 19007KT 10SM BKN065 BKN085 BKN120 21/18 A2987 RMK A01
KM91 241955Z AUTO 19009G15KT 10SM FEW080 BKN110 21/17 A2988 RMK A01 P0003
KM91 241935Z AUTO 19007KT 10SM SCT037 SCT070 BKN110 20/18 A2989 RMK A01
KM91 241915Z AUTO 23007G15KT 5SM BR SCT032 BKN043 OVC120 20/18 A2990 RMK A01
KM91 241855Z AUTO 22010KT 6SM HZ FEW031 BKN044 OVC075 21/17 A2990 RMK A01
KM91 241835Z AUTO 19009KT 10SM FEW032 FEW050 BKN070 22/17 A2991 RMK A01
KM91 241815Z AUTO 20009G17KT 10SM SCT029 SCT037 BKN065 22/17 A2994 RMK A01
KM91 241755Z AUTO 20014KT 10SM SCT027 BKN032 BKN037 22/18 A2995 RMK A01
KM91 241735Z AUTO 20012G18KT 160V230 10SM FEW023 SCT032 SCT060 23/18 A2996 RMK A01
KM91 241715Z AUTO 20014G22KT 10SM BKN021 BKN032 BKN120 22/18 A2998 RMK A01
KM91 241655Z AUTO 19015KT 10SM SCT021 SCT028 BKN036 22/19 A2999 RMK A01
KM91 241635Z AUTO 20008G15KT 10SM FEW017 SCT022 BKN028 20/18 A3001 RMK A01
KM91 241615Z AUTO 21009G16KT 10SM BKN016 BKN022 OVC027 20/18 A3002 RMK A01
KM91 241555Z AUTO 22011G16KT 10SM SCT014 BKN018 OVC037 20/18 A3002 RMK A01
KM91 241535Z AUTO 21008G16KT 10SM FEW012 BKN018 OVC023 19/18 A3002 RMK A01
KM91 241515Z AUTO 22009G14KT 10SM BKN011 BKN015 OVC020 19/18 A3003 RMK A01
KM91 241455Z AUTO 21008KT 10SM BKN009 OVC014 19/18 A3003 RMK A01
KM91 241435Z AUTO 22009KT 10SM BKN009 OVC015 18/18 A3004 RMK A01
KM91 241415Z AUTO 20009G16KT 10SM BKN007 BKN011 OVC018 18/18 A3003 RMK A01
KM91 241355Z AUTO 20008KT 9SM BKN005 OVC009 17/17 A3003 RMK A01
KM91 241335Z AUTO 19009G14KT 2 1/2SM BR OVC005 17/17 A3002 RMK A01
KM91 241315Z AUTO 19009KT 1 1/4SM BR OVC004 16/16 A3002 RMK A01
KM91 241255Z AUTO 19007KT 2SM BR OVC006 16/16 A3002 RMK A01 P0009
KM91 241235Z AUTO 17008KT 7SM OVC007 16/16 A3002 RMK A01
KM91 241215Z AUTO 18006KT 10SM BKN008 OVC012 16/16 A3002 RMK A01
KM91 241155Z AUTO 16004KT 10SM OVC013 15/15 A3002 RMK A01 P0001
KM91 241135Z AUTO 13004KT 8SM OVC015 15/15 A3002 RMK A01
KM91 241115Z AUTO 15004KT 10SM OVC016 15/15 A3002 RMK A01
KM91 241055Z AUTO 12003KT 6SM BR FEW005 OVC019 15/15 A3002 RMK A01 P0001
KM91 241035Z AUTO 00000KT 9SM FEW004 BKN021 OVC029 15/15 A3003 RMK A01
KM91 241015Z AUTO 14006KT 5SM BR SCT005 BKN029 OVC036 15/15 A3004 RMK A01
KM91 240955Z AUTO 15006KT 2 1/2SM BR SCT006 BKN032 OVC042 15/15 A3004 RMK A01 P0013
KM91 240935Z AUTO 16005KT 2 1/2SM BR SCT005 BKN033 OVC043 15/14 A3006 RMK A01
KM91 240915Z AUTO VRB05KT 1 1/2SM BR BKN003 BKN009 OVC017 14/14 A3007 RMK A01
KM91 240855Z AUTO 14004KT 2SM BR SCT004 BKN022 OVC030 14/14 A3007 RMK A01 P0005
KM91 240835Z AUTO 00000KT 2 1/2SM BR OVC003 14/14 A3008 RMK A01
KM91 240815Z AUTO 14003KT 1 1/2SM BR OVC003 14/14 A3009 RMK A01
KM91 240755Z AUTO 00000KT 1 3/4SM BR OVC003 14/14 A3010 RMK A01
KM91 240735Z AUTO 00000KT 2SM BR OVC003 14/14 A3010 RMK A01
KM91 240715Z AUTO 00000KT 3SM BR OVC003 14/14 A3011 RMK A01
KM91 240655Z AUTO VRB03KT 3SM BR OVC003 14/14 A3011 RMK A01
KM91 240635Z AUTO 05004KT 3SM BR OVC003 14/14 A3012 RMK A01
KM91 240615Z AUTO 10004KT 2SM BR OVC003 14/14 A3014 RMK A01
KM91 240555Z AUTO 08004KT 2 1/2SM BR OVC003 14/14 A3015 RMK A01
KM91 240535Z AUTO 00000KT 2 1/2SM BR OVC003 14/14 A3015 RMK A01
KM91 240515Z AUTO 01003KT 3SM BR OVC003 14/14 A3016 RMK A01
KM91 240455Z AUTO 21004KT 3SM BR BKN003 OVC029 14/14 A3017 RMK A01
KM91 240435Z AUTO 00000KT 3SM BR OVC003 14/14 A3017 RMK A01
KM91 240415Z AUTO 00000KT 3SM BR OVC003 14/14 A3017 RMK A01
KM91 240355Z AUTO 00000KT 4SM BR OVC003 14/14 A3018 RMK A01
KM91 240335Z AUTO 00000KT 4SM BR OVC004 14/14 A3019 RMK A01
KM91 240315Z AUTO 00000KT 4SM BR OVC004 14/14 A3019 RMK A01
KM91 240255Z AUTO 00000KT 4SM BR OVC004 14/14 A3020 RMK A01
KM91 240235Z AUTO 02005KT 5SM BR OVC004 14/14 A3020 RMK A01
KM91 240215Z AUTO 35006G12KT 4SM BR OVC004 14/14 A3020 RMK A01
KM91 240155Z AUTO 36008KT 6SM BR OVC004 15/15 A3019 RMK A01